Terminal Aerodrome Forecast
Issued by NWS Cleveland, OH

Home | Current Version | Previous Version | Text Only | Print | Product List | Glossary Off
Versions: 1 2 3 4 5 6 7 8 9 10 11 12 13 14 15 16 17 18 19 20

462
FTUS41 KCLE 210529
TAFMFD
TAF
KMFD 210529Z 2106/2206 12007KT P6SM OVC200
     FM211500 18012KT P6SM OVC120
     FM212200 20011KT P6SM OVC080
     FM220400 20004KT 4SM -SHRA BR OVC020=

USA.gov is the U.S. government's official web portal to all federal, state and local government web resources and services.